Terminal Aerodrome Forecast
Issued by NWS Blacksburg, VA

Current Version | Previous Version | Graphics & Text | Print | Product List | Glossary On
Versions: 1 2 3 4 5 6 7 8 9 10 11 12 13 14 15 16 17 18 19 20 21 22 23 24 25 26 27 28 29 30 31 32 33 34 35 36
000
FTUS41 KRNK 280732 AAA
TAFBLF
TAF AMD
KBLF 280732Z 2808/2906 26010KT P6SM BKN025 OVC040
     FM281000 25006KT P6SM -RA OVC020
     FM281400 27005KT 4SM -RA BR SCT005 OVC012
     FM281800 28006KT 2SM -RA BR SCT002 OVC007
     FM290100 27004KT 1SM -RA BR OVC003=

USA.gov is the U.S. government's official web portal to all federal, state and local government web resources and services.